createdAt,value
2022-07-29T00:00:25.242Z,8.90
2022-07-29T00:02:53.294Z,7.37
2022-07-29T00:05:21.455Z,6.77
2022-07-29T00:07:49.500Z,7.30
2022-07-29T00:10:17.508Z,7.73
2022-07-29T00:12:45.604Z,7.80
2022-07-29T00:15:15.079Z,8.67
2022-07-29T00:17:43.178Z,7.80
2022-07-29T00:20:12.158Z,7.60
2022-07-29T00:22:41.171Z,8.13
2022-07-29T00:25:10.024Z,7.70
2022-07-29T00:27:38.556Z,7.90
2022-07-29T00:30:08.669Z,6.97
2022-07-29T00:32:38.024Z,8.33
2022-07-29T00:35:26.825Z,7.97
2022-07-29T00:37:54.794Z,8.00
2022-07-29T00:40:23.395Z,8.13
2022-07-29T00:42:53.502Z,7.97
2022-07-29T00:45:22.924Z,8.20
2022-07-29T00:47:52.425Z,7.37
2022-07-29T00:50:20.699Z,7.20
2022-07-29T00:52:49.370Z,7.50
2022-07-29T00:55:18.137Z,7.63
2022-07-29T00:57:46.802Z,7.03
2022-07-29T01:00:18.354Z,6.93
2022-07-29T01:02:48.425Z,6.97
2022-07-29T01:05:19.942Z,7.50
2022-07-29T01:07:49.692Z,7.43
2022-07-29T01:10:20.302Z,6.80
2022-07-29T01:12:52.372Z,7.87
2022-07-29T01:15:20.610Z,6.80
2022-07-29T01:17:54.109Z,6.43
2022-07-29T01:20:32.851Z,6.57
2022-07-29T01:23:24.570Z,7.13
2022-07-29T01:26:32.412Z,7.53
2022-07-29T01:29:07.428Z,7.17
2022-07-29T01:31:58.836Z,7.40
2022-07-29T01:34:32.154Z,7.23
2022-07-29T01:37:08.819Z,6.83
2022-07-29T01:39:39.233Z,7.37
2022-07-29T01:42:16.607Z,5.73
2022-07-29T01:44:52.936Z,7.90
2022-07-29T01:47:25.368Z,6.03
2022-07-29T01:49:58.691Z,6.50
2022-07-29T01:52:38.346Z,6.43
2022-07-29T01:55:11.576Z,7.17
2022-07-29T01:57:42.377Z,5.70
2022-07-29T02:00:14.303Z,7.00
2022-07-29T02:02:45.593Z,6.57
2022-07-29T02:05:16.823Z,6.20
2022-07-29T02:07:46.670Z,6.73
2022-07-29T02:10:16.120Z,8.10
2022-07-29T02:12:50.581Z,7.03
2022-07-29T02:15:21.532Z,6.47
2022-07-29T02:17:55.117Z,6.53
2022-07-29T02:20:25.935Z,6.80
2022-07-29T02:22:56.051Z,6.33
2022-07-29T02:25:25.384Z,6.10
2022-07-29T02:28:07.257Z,6.00
2022-07-29T02:30:41.030Z,5.50
2022-07-29T02:33:10.645Z,5.73
2022-07-29T02:35:40.644Z,6.10
2022-07-29T02:38:28.238Z,5.00
2022-07-29T02:40:58.778Z,6.20
2022-07-29T02:43:27.894Z,5.27
2022-07-29T02:45:58.658Z,4.90
2022-07-29T02:48:34.543Z,5.07
2022-07-29T02:51:09.047Z,5.13
2022-07-29T02:53:43.495Z,5.00
2022-07-29T02:56:15.895Z,5.90
2022-07-29T02:58:51.602Z,6.73
2022-07-29T03:01:25.165Z,6.10
2022-07-29T03:03:55.509Z,5.27
2022-07-29T03:06:28.769Z,6.80
2022-07-29T03:09:13.014Z,5.83
2022-07-29T03:11:49.837Z,5.50
2022-07-29T03:14:21.009Z,5.20
2022-07-29T03:16:51.915Z,5.60
2022-07-29T03:19:21.326Z,5.47
2022-07-29T03:21:49.763Z,5.57
2022-07-29T03:24:28.889Z,6.27
2022-07-29T03:26:57.562Z,5.37
2022-07-29T03:29:33.297Z,5.90
2022-07-29T03:32:08.493Z,5.70
2022-07-29T03:34:38.507Z,7.57
2022-07-29T03:37:07.195Z,5.30
2022-07-29T03:39:40.648Z,5.57
2022-07-29T03:42:10.706Z,5.47
2022-07-29T03:44:40.814Z,5.57
2022-07-29T03:47:11.731Z,5.13
2022-07-29T03:49:42.205Z,6.40
2022-07-29T03:52:10.922Z,5.63
2022-07-29T03:54:39.051Z,5.57
2022-07-29T03:57:07.874Z,5.30
2022-07-29T03:59:36.169Z,6.20
2022-07-29T04:02:08.401Z,5.53
2022-07-29T04:04:38.287Z,5.50
2022-07-29T04:07:06.516Z,5.57
2022-07-29T04:09:34.674Z,4.67
2022-07-29T04:12:04.269Z,5.10
2022-07-29T04:14:33.772Z,5.50
2022-07-29T04:17:02.836Z,5.13
2022-07-29T04:19:31.059Z,5.27
2022-07-29T04:22:01.265Z,5.40
2022-07-29T04:24:30.005Z,4.87
2022-07-29T04:26:58.123Z,5.43
2022-07-29T04:29:26.238Z,4.87
2022-07-29T04:31:54.215Z,5.47
2022-07-29T04:34:22.267Z,5.67
2022-07-29T04:36:50.255Z,4.40
2022-07-29T04:39:22.946Z,4.60
2022-07-29T04:41:52.467Z,5.23
2022-07-29T04:44:22.994Z,4.40
2022-07-29T04:46:57.625Z,4.73
2022-07-29T04:49:26.145Z,4.80
2022-07-29T04:51:54.415Z,5.13
2022-07-29T04:54:23.887Z,4.00
2022-07-29T04:56:53.637Z,3.70
2022-07-29T04:59:21.688Z,5.20
2022-07-29T05:01:49.784Z,5.13
2022-07-29T05:04:18.313Z,4.00
2022-07-29T05:06:46.828Z,4.93
2022-07-29T05:09:14.871Z,3.77
2022-07-29T05:11:44.275Z,3.73
2022-07-29T05:14:12.308Z,4.77
2022-07-29T05:16:41.247Z,4.73
2022-07-29T05:19:13.822Z,3.73
2022-07-29T05:21:42.792Z,3.23
2022-07-29T05:24:10.845Z,3.30
2022-07-29T05:26:38.902Z,5.63
2022-07-29T05:29:08.347Z,3.40
2022-07-29T05:31:56.318Z,3.37
2022-07-29T05:34:24.745Z,3.13
2022-07-29T05:36:52.802Z,4.53
2022-07-29T05:39:20.833Z,3.17
2022-07-29T05:41:51.973Z,3.10
2022-07-29T05:44:21.615Z,2.80
2022-07-29T05:46:53.468Z,3.37
2022-07-29T05:49:23.161Z,3.17
2022-07-29T05:51:55.850Z,2.53
2022-07-29T05:54:23.870Z,3.37
2022-07-29T05:56:52.180Z,2.77
2022-07-29T05:59:24.917Z,3.20
2022-07-29T06:01:55.663Z,2.43
2022-07-29T06:04:23.861Z,3.30
2022-07-29T06:06:51.937Z,3.00
2022-07-29T06:09:19.978Z,3.10
2022-07-29T06:11:48.010Z,2.93
2022-07-29T06:14:16.463Z,3.93
2022-07-29T06:16:46.067Z,3.40
2022-07-29T06:19:14.117Z,5.90
2022-07-29T06:21:44.518Z,4.50
2022-07-29T06:24:13.419Z,3.83
2022-07-29T06:26:42.015Z,3.50
2022-07-29T06:29:11.602Z,4.07
2022-07-29T06:31:40.126Z,3.80
2022-07-29T06:34:09.763Z,3.40
2022-07-29T06:36:39.722Z,3.60
2022-07-29T06:39:09.980Z,6.53
2022-07-29T06:41:39.842Z,3.67
2022-07-29T06:44:07.995Z,3.70
2022-07-29T06:46:36.162Z,5.73
2022-07-29T06:49:04.501Z,3.83
2022-07-29T06:51:34.056Z,3.57
2022-07-29T06:54:06.767Z,4.23
2022-07-29T06:56:39.883Z,4.13
2022-07-29T06:59:09.386Z,3.97
2022-07-29T07:01:38.159Z,5.20
2022-07-29T07:04:06.471Z,3.73
2022-07-29T07:06:36.169Z,4.10
2022-07-29T07:09:04.476Z,3.47
2022-07-29T07:11:32.696Z,3.60
2022-07-29T07:14:03.906Z,3.30
2022-07-29T07:16:54.961Z,3.80
2022-07-29T07:19:23.014Z,4.13
2022-07-29T07:21:52.393Z,5.07
2022-07-29T07:24:20.427Z,4.17
2022-07-29T07:26:48.993Z,3.80
2022-07-29T07:29:17.179Z,3.50
2022-07-29T07:31:45.319Z,4.43
2022-07-29T07:34:13.752Z,3.77
2022-07-29T07:36:42.082Z,3.90
2022-07-29T07:39:11.446Z,3.83
2022-07-29T07:41:39.526Z,4.30
2022-07-29T07:44:07.683Z,4.60
2022-07-29T07:46:35.784Z,3.67
2022-07-29T07:49:03.990Z,3.70
2022-07-29T07:51:31.991Z,3.73
2022-07-29T07:54:00.076Z,3.77
2022-07-29T07:56:34.872Z,4.30
2022-07-29T07:59:03.426Z,4.70
2022-07-29T08:01:48.099Z,4.97
2022-07-29T08:04:24.919Z,4.03
2022-07-29T08:06:55.640Z,4.33
2022-07-29T08:09:29.636Z,4.40
2022-07-29T08:12:00.453Z,3.87
2022-07-29T08:14:28.530Z,3.70
2022-07-29T08:16:56.656Z,6.60
2022-07-29T08:19:24.776Z,4.57
2022-07-29T08:21:54.963Z,4.60
2022-07-29T08:24:45.163Z,3.83
2022-07-29T08:27:40.567Z,4.10
2022-07-29T08:30:03.645Z,4.40
2022-07-29T08:32:52.427Z,4.07
2022-07-29T08:35:20.624Z,4.50
2022-07-29T08:37:48.842Z,4.70
2022-07-29T08:40:17.105Z,4.33
2022-07-29T08:42:46.533Z,5.30
2022-07-29T08:45:14.908Z,5.20
2022-07-29T08:47:43.261Z,4.50
2022-07-29T08:50:12.039Z,4.10
2022-07-29T08:52:41.964Z,4.40
2022-07-29T08:55:11.633Z,5.30
2022-07-29T08:57:50.786Z,5.13
2022-07-29T09:00:24.205Z,4.47
2022-07-29T09:02:58.658Z,4.73
2022-07-29T09:05:27.941Z,5.10
2022-07-29T09:07:56.420Z,5.80
2022-07-29T09:10:24.801Z,5.03
2022-07-29T09:12:53.313Z,5.10
2022-07-29T09:15:22.829Z,4.60
2022-07-29T09:17:51.666Z,5.03
2022-07-29T09:20:21.280Z,4.50
2022-07-29T09:22:50.438Z,5.10
2022-07-29T09:25:35.644Z,4.80
2022-07-29T09:28:10.461Z,4.90
2022-07-29T09:30:52.112Z,4.83
2022-07-29T09:33:20.890Z,5.67
2022-07-29T09:36:01.842Z,5.07
2022-07-29T09:38:30.418Z,5.40
2022-07-29T09:40:59.890Z,6.33
2022-07-29T09:43:33.846Z,5.50
2022-07-29T09:46:13.521Z,9.67
2022-07-29T09:48:41.758Z,7.07
2022-07-29T09:51:21.305Z,4.90
2022-07-29T09:53:51.343Z,5.67
2022-07-29T09:56:21.818Z,4.97
2022-07-29T09:58:50.144Z,8.00
2022-07-29T10:01:30.046Z,5.13
2022-07-29T10:03:58.180Z,5.17
2022-07-29T10:06:26.293Z,7.30
2022-07-29T10:08:54.462Z,5.70
2022-07-29T10:11:22.860Z,5.80
2022-07-29T10:13:51.061Z,5.70
2022-07-29T10:16:20.651Z,5.43
2022-07-29T10:18:48.883Z,5.87
2022-07-29T10:21:22.495Z,4.90
2022-07-29T10:24:03.828Z,6.00
2022-07-29T10:26:32.334Z,7.00
2022-07-29T10:29:00.623Z,5.63
2022-07-29T10:31:38.807Z,6.00
2022-07-29T10:34:16.639Z,6.60
2022-07-29T10:37:05.987Z,5.83
2022-07-29T10:39:49.587Z,5.90
2022-07-29T10:42:29.705Z,6.67
2022-07-29T10:45:06.077Z,5.60
2022-07-29T10:47:35.753Z,5.80
2022-07-29T10:50:06.146Z,5.70
2022-07-29T10:52:55.410Z,6.70
2022-07-29T10:55:37.759Z,7.50
2022-07-29T10:58:22.213Z,7.03
2022-07-29T11:00:51.647Z,7.27
2022-07-29T11:07:08.918Z,7.93
2022-07-29T11:09:38.445Z,8.63
2022-07-29T11:12:27.383Z,10.10
2022-07-29T11:15:02.495Z,13.87
2022-07-29T11:17:47.154Z,15.17
2022-07-29T11:20:43.628Z,17.83
2022-07-29T11:23:34.039Z,14.87
2022-07-29T11:26:24.817Z,12.70
2022-07-29T11:29:03.310Z,14.30
2022-07-29T11:31:37.337Z,14.47
2022-07-29T11:34:27.974Z,12.30
2022-07-29T11:37:28.371Z,12.57
2022-07-29T11:40:30.151Z,13.13
2022-07-29T11:42:58.408Z,12.27
2022-07-29T11:45:44.812Z,12.63
2022-07-29T11:48:28.820Z,11.63
2022-07-29T11:51:00.613Z,11.13
2022-07-29T11:53:33.060Z,12.77
2022-07-29T11:56:03.577Z,10.60
2022-07-29T11:58:32.583Z,12.17
2022-07-29T12:01:05.073Z,11.67
2022-07-29T12:03:37.305Z,12.47
2022-07-29T12:06:15.078Z,11.57
2022-07-29T12:08:45.500Z,9.03
2022-07-29T12:11:22.486Z,9.70
2022-07-29T12:13:51.863Z,11.13
2022-07-29T12:16:25.304Z,8.23
2022-07-29T12:18:59.520Z,7.90
2022-07-29T12:21:28.891Z,7.53
2022-07-29T12:24:05.858Z,6.83
2022-07-29T12:26:37.997Z,6.90
2022-07-29T12:29:11.412Z,8.63
2022-07-29T12:31:45.612Z,5.37
2022-07-29T12:34:15.248Z,6.40
2022-07-29T12:36:45.031Z,5.73
2022-07-29T12:39:14.667Z,8.10
2022-07-29T12:41:42.847Z,6.40
2022-07-29T12:44:11.325Z,6.40
2022-07-29T12:46:39.724Z,6.53
2022-07-29T12:49:07.915Z,6.10
2022-07-29T12:51:37.923Z,8.83
2022-07-29T12:54:08.614Z,6.03
2022-07-29T12:56:45.594Z,6.33
2022-07-29T12:59:15.961Z,7.70
2022-07-29T13:01:45.188Z,8.03
2022-07-29T13:04:13.284Z,7.93
2022-07-29T13:06:42.726Z,6.77
2022-07-29T13:09:15.650Z,6.47
2022-07-29T13:11:48.797Z,6.83
2022-07-29T13:14:33.398Z,6.70
2022-07-29T13:17:08.458Z,7.23
2022-07-29T13:19:39.306Z,7.10
2022-07-29T13:22:07.891Z,9.63
2022-07-29T13:24:36.130Z,9.57
2022-07-29T13:27:05.909Z,10.27
2022-07-29T13:29:34.276Z,7.90
2022-07-29T13:32:02.439Z,8.60
2022-07-29T13:34:30.449Z,9.53
2022-07-29T13:36:58.551Z,8.20
2022-07-29T13:39:26.615Z,9.13
2022-07-29T13:41:54.930Z,9.00
2022-07-29T13:44:25.707Z,9.40
2022-07-29T13:46:54.768Z,10.17
2022-07-29T13:49:23.431Z,10.23
2022-07-29T13:51:51.817Z,9.23
2022-07-29T13:54:19.887Z,8.20
2022-07-29T13:56:47.943Z,8.90
2022-07-29T13:59:15.921Z,8.47
2022-07-29T14:01:45.589Z,7.97
2022-07-29T14:04:14.768Z,7.93
2022-07-29T14:06:43.120Z,8.33
2022-07-29T14:09:11.624Z,7.80
2022-07-29T14:11:40.734Z,6.90
2022-07-29T14:14:08.988Z,7.70
2022-07-29T14:16:42.012Z,6.97
2022-07-29T14:19:12.595Z,7.07
2022-07-29T14:21:40.931Z,7.10
2022-07-29T14:24:17.971Z,6.93
2022-07-29T14:26:50.169Z,7.37
2022-07-29T14:29:18.237Z,7.73
2022-07-29T14:31:46.429Z,7.00
2022-07-29T14:34:16.941Z,7.03
2022-07-29T14:36:45.004Z,6.80
2022-07-29T14:39:13.427Z,6.97
2022-07-29T14:41:41.417Z,7.20
2022-07-29T14:44:09.515Z,7.50
2022-07-29T14:46:37.547Z,8.63
2022-07-29T14:49:06.613Z,7.37
2022-07-29T14:51:38.894Z,6.27
2022-07-29T14:54:08.499Z,6.43
2022-07-29T14:56:37.562Z,6.50
2022-07-29T14:59:06.848Z,6.17
2022-07-29T15:01:34.982Z,6.17
2022-07-29T15:04:03.172Z,7.50
2022-07-29T15:06:31.308Z,7.67
2022-07-29T15:09:00.702Z,6.70
2022-07-29T15:11:28.767Z,6.70
2022-07-29T15:13:57.189Z,7.00
2022-07-29T15:16:25.332Z,7.37
2022-07-29T15:18:53.402Z,7.20
2022-07-29T15:21:21.422Z,7.60
2022-07-29T15:23:49.476Z,7.57
2022-07-29T15:26:18.916Z,8.80
2022-07-29T15:28:47.020Z,8.00
2022-07-29T15:31:15.119Z,7.63
2022-07-29T15:33:43.402Z,7.63
2022-07-29T15:36:25.491Z,8.20
2022-07-29T15:39:00.720Z,7.60
2022-07-29T15:41:30.230Z,7.10
2022-07-29T15:43:58.251Z,7.83
2022-07-29T15:46:43.946Z,7.60
2022-07-29T15:49:12.069Z,7.93
2022-07-29T15:51:40.133Z,9.37
2022-07-29T15:54:08.269Z,8.10
2022-07-29T15:56:37.709Z,8.47
2022-07-29T15:59:05.857Z,8.27
2022-07-29T16:01:33.918Z,8.60
2022-07-29T16:04:02.918Z,8.33
2022-07-29T16:06:32.095Z,8.90
2022-07-29T16:09:00.580Z,8.20
2022-07-29T16:11:28.681Z,8.93
2022-07-29T16:13:58.108Z,8.67
2022-07-29T16:16:27.050Z,9.40
2022-07-29T16:18:55.464Z,8.03
2022-07-29T16:21:23.834Z,8.60
2022-07-29T16:23:52.895Z,8.13
2022-07-29T16:26:21.012Z,8.13
2022-07-29T16:28:49.115Z,8.50
2022-07-29T16:31:23.136Z,7.53
2022-07-29T16:33:54.917Z,7.70
2022-07-29T16:36:24.344Z,8.03
2022-07-29T16:38:52.363Z,7.80
2022-07-29T16:41:20.494Z,8.07
2022-07-29T16:43:48.530Z,7.57
2022-07-29T16:46:18.516Z,8.60
2022-07-29T16:48:49.424Z,8.17
2022-07-29T16:51:17.677Z,7.97
2022-07-29T16:53:45.868Z,8.30
2022-07-29T16:56:18.723Z,8.60
2022-07-29T16:58:47.176Z,7.90
2022-07-29T17:01:16.048Z,8.63
2022-07-29T17:04:00.179Z,8.63
2022-07-29T17:06:30.081Z,8.97
2022-07-29T17:08:58.135Z,8.83
2022-07-29T17:11:52.477Z,9.20
2022-07-29T17:14:16.313Z,8.73
2022-07-29T17:17:00.641Z,8.43
2022-07-29T17:19:30.762Z,8.63
2022-07-29T17:22:11.324Z,8.97
2022-07-29T17:24:42.642Z,8.20
2022-07-29T17:27:11.171Z,8.20
2022-07-29T17:29:39.695Z,7.97
2022-07-29T17:32:09.075Z,8.20
2022-07-29T17:34:37.692Z,8.27
2022-07-29T17:37:08.408Z,8.53
2022-07-29T17:39:36.505Z,9.00
2022-07-29T17:42:04.938Z,11.70
2022-07-29T17:44:36.222Z,8.20
2022-07-29T17:47:05.182Z,8.90
2022-07-29T17:49:36.392Z,8.60
2022-07-29T17:52:07.327Z,8.10
2022-07-29T17:54:35.345Z,7.83
2022-07-29T17:57:03.391Z,7.53
2022-07-29T17:59:31.415Z,8.30
2022-07-29T18:01:59.469Z,7.83
2022-07-29T18:04:28.632Z,7.57
2022-07-29T18:06:56.871Z,7.40
2022-07-29T18:09:26.482Z,7.83
2022-07-29T18:11:54.559Z,7.10
2022-07-29T18:14:22.564Z,8.47
2022-07-29T18:16:51.074Z,7.50
2022-07-29T18:19:19.171Z,7.77
2022-07-29T18:21:54.853Z,7.90
2022-07-29T18:24:25.654Z,7.60
2022-07-29T18:26:56.584Z,7.97
2022-07-29T18:29:24.934Z,7.67
2022-07-29T18:31:52.908Z,8.33
2022-07-29T18:34:20.932Z,8.27
2022-07-29T18:36:48.977Z,7.10
2022-07-29T18:39:21.210Z,8.27
2022-07-29T18:41:51.215Z,8.07
2022-07-29T18:44:22.689Z,7.50
2022-07-29T18:46:52.041Z,7.83
2022-07-29T18:49:20.515Z,8.27
2022-07-29T18:51:49.074Z,8.07
2022-07-29T18:54:18.359Z,7.60
2022-07-29T18:56:47.228Z,6.93
2022-07-29T18:59:16.969Z,6.50
2022-07-29T19:01:46.947Z,6.50
2022-07-29T19:04:18.240Z,6.50
2022-07-29T19:06:46.437Z,7.50
2022-07-29T19:09:14.572Z,8.40
2022-07-29T19:11:42.576Z,7.70
2022-07-29T19:14:10.753Z,7.77
2022-07-29T19:16:38.824Z,7.00
2022-07-29T19:19:10.118Z,6.80
2022-07-29T19:21:38.152Z,6.73
2022-07-29T19:24:10.125Z,7.00
2022-07-29T19:26:46.476Z,12.20
2022-07-29T19:29:15.068Z,7.27
2022-07-29T19:31:43.229Z,6.20
2022-07-29T19:34:13.141Z,5.70
2022-07-29T19:36:41.860Z,6.10
2022-07-29T19:39:10.455Z,7.00
2022-07-29T19:41:39.041Z,5.90
2022-07-29T19:44:07.168Z,5.13
2022-07-29T19:46:35.182Z,4.90
2022-07-29T19:49:03.366Z,5.93
2022-07-29T19:51:32.781Z,4.60
2022-07-29T19:54:00.880Z,5.50
2022-07-29T19:56:30.173Z,5.20
2022-07-29T19:58:58.875Z,6.70
2022-07-29T20:01:27.011Z,5.87
2022-07-29T20:03:55.132Z,5.20
2022-07-29T20:06:23.737Z,5.20
2022-07-29T20:08:58.208Z,4.97
2022-07-29T20:11:27.374Z,4.70
2022-07-29T20:13:55.459Z,5.00
2022-07-29T20:16:23.616Z,4.83
2022-07-29T20:18:53.575Z,4.80
2022-07-29T20:21:21.578Z,4.67
2022-07-29T20:23:49.819Z,5.00
2022-07-29T20:26:19.299Z,5.40
2022-07-29T20:28:49.459Z,5.70
2022-07-29T20:31:18.874Z,4.60
2022-07-29T20:33:47.036Z,4.80
2022-07-29T20:36:15.383Z,5.30
2022-07-29T20:38:43.681Z,6.37
2022-07-29T20:41:11.676Z,6.47
2022-07-29T20:43:41.444Z,6.10
2022-07-29T20:46:10.110Z,4.83
2022-07-29T20:48:39.745Z,8.00
2022-07-29T20:51:08.454Z,4.97
2022-07-29T20:53:38.252Z,6.43
2022-07-29T20:56:07.654Z,5.53
2022-07-29T20:58:36.532Z,5.77
2022-07-29T21:01:07.004Z,7.80
2022-07-29T21:03:35.336Z,5.70
2022-07-29T21:06:03.866Z,6.30
2022-07-29T21:08:32.086Z,5.90
2022-07-29T21:11:00.212Z,7.10
2022-07-29T21:13:28.600Z,5.40
2022-07-29T21:16:01.016Z,6.70
2022-07-29T21:18:32.593Z,6.73
2022-07-29T21:21:02.059Z,6.97
2022-07-29T21:23:30.198Z,6.80
2022-07-29T21:25:58.875Z,6.70
2022-07-29T21:28:30.618Z,6.93
2022-07-29T21:31:00.427Z,7.20
2022-07-29T21:33:33.260Z,8.73
2022-07-29T21:38:49.992Z,11.37
2022-07-29T21:41:18.082Z,10.17
2022-07-29T21:43:46.154Z,8.90
2022-07-29T21:46:16.502Z,8.87
2022-07-29T21:48:45.997Z,6.80
2022-07-29T21:51:14.057Z,7.57
2022-07-29T21:53:42.061Z,6.10
2022-07-29T21:56:14.776Z,7.27
2022-07-29T21:58:43.336Z,5.70
2022-07-29T22:01:11.534Z,5.40
2022-07-29T22:03:39.648Z,5.57
2022-07-29T22:06:09.203Z,5.03
2022-07-29T22:08:47.845Z,6.80
2022-07-29T22:11:15.925Z,5.70
2022-07-29T22:13:43.947Z,5.50
2022-07-29T22:16:14.876Z,5.83
2022-07-29T22:18:45.118Z,5.50
2022-07-29T22:21:14.853Z,6.13
2022-07-29T22:23:43.188Z,5.53
2022-07-29T22:26:11.216Z,8.00
2022-07-29T22:28:39.392Z,5.50
2022-07-29T22:31:08.867Z,5.93
2022-07-29T22:33:37.191Z,6.70
2022-07-29T22:36:05.638Z,5.50
2022-07-29T22:38:35.061Z,11.43
2022-07-29T22:41:03.466Z,8.07
2022-07-29T22:43:31.624Z,7.57
2022-07-29T22:45:59.875Z,7.27
2022-07-29T22:48:28.321Z,6.53
2022-07-29T22:50:56.444Z,6.77
2022-07-29T22:53:24.588Z,6.60
2022-07-29T22:55:55.869Z,7.03
2022-07-29T22:58:23.967Z,7.23
2022-07-29T23:00:52.131Z,6.50
2022-07-29T23:03:20.369Z,8.27
2022-07-29T23:05:49.161Z,8.93
2022-07-29T23:08:17.266Z,8.17
2022-07-29T23:10:45.649Z,7.30
2022-07-29T23:13:15.550Z,6.57
2022-07-29T23:15:43.604Z,6.00
2022-07-29T23:18:11.661Z,5.70
2022-07-29T23:20:40.076Z,4.50
2022-07-29T23:23:08.175Z,4.67
2022-07-29T23:25:36.181Z,3.90
2022-07-29T23:28:04.393Z,4.83
2022-07-29T23:30:33.885Z,4.93
2022-07-29T23:33:02.678Z,3.90
2022-07-29T23:35:33.026Z,5.03
2022-07-29T23:38:01.367Z,4.60
2022-07-29T23:40:29.627Z,3.80
2022-07-29T23:42:57.705Z,4.13
2022-07-29T23:45:42.442Z,5.40
2022-07-29T23:48:14.587Z,3.80
2022-07-29T23:50:42.745Z,4.00
2022-07-29T23:53:12.061Z,4.63
2022-07-29T23:55:40.112Z,4.30
2022-07-29T23:58:08.331Z,5.50
